sensor_id;sensor_type;location;lat;lon;timestamp;P1;durP1;ratioP1;P2;durP2;ratioP2
28796;SDS011;24974;54.444;18.560;2023-05-31T09:20:18;12.93;;;1.70;;
28796;SDS011;24974;54.444;18.560;2023-05-31T09:22:50;4.20;;;2.00;;
28796;SDS011;24974;54.444;18.560;2023-05-31T09:25:20;7.88;;;1.88;;
28796;SDS011;24974;54.444;18.560;2023-05-31T09:27:51;4.88;;;1.80;;
28796;SDS011;24974;54.444;18.560;2023-05-31T09:30:23;21.02;;;2.70;;
28796;SDS011;24974;54.444;18.560;2023-05-31T09:32:55;5.00;;;1.88;;
28796;SDS011;24974;54.444;18.560;2023-05-31T09:35:26;9.02;;;2.05;;
28796;SDS011;24974;54.444;18.560;2023-05-31T09:37:57;6.57;;;2.00;;
28796;SDS011;24974;54.444;18.560;2023-05-31T09:40:34;5.07;;;2.03;;
28796;SDS011;24974;54.444;18.560;2023-05-31T09:43:05;4.20;;;1.90;;
28796;SDS011;24974;54.444;18.560;2023-05-31T09:45:36;3.53;;;1.90;;
28796;SDS011;24974;54.444;18.560;2023-05-31T09:48:07;5.28;;;2.55;;
28796;SDS011;24974;54.444;18.560;2023-05-31T09:50:41;4.13;;;1.83;;
28796;SDS011;24974;54.444;18.560;2023-05-31T09:53:12;7.10;;;2.20;;
28796;SDS011;24974;54.444;18.560;2023-05-31T09:55:48;3.77;;;1.90;;
28796;SDS011;24974;54.444;18.560;2023-05-31T09:58:28;6.13;;;1.63;;
28796;SDS011;24974;54.444;18.560;2023-05-31T10:01:02;3.70;;;1.80;;
28796;SDS011;24974;54.444;18.560;2023-05-31T10:03:34;6.10;;;2.33;;
28796;SDS011;24974;54.444;18.560;2023-05-31T10:06:05;5.47;;;1.85;;
28796;SDS011;24974;54.444;18.560;2023-05-31T10:08:37;4.90;;;2.05;;
28796;SDS011;24974;54.444;18.560;2023-05-31T10:11:08;6.00;;;2.67;;
28796;SDS011;24974;54.444;18.560;2023-05-31T10:13:44;8.57;;;2.00;;
28796;SDS011;24974;54.444;18.560;2023-05-31T10:16:17;6.05;;;2.17;;
28796;SDS011;24974;54.444;18.560;2023-05-31T10:18:51;6.30;;;2.00;;
28796;SDS011;24974;54.444;18.560;2023-05-31T10:21:30;6.13;;;2.05;;
28796;SDS011;24974;54.444;18.560;2023-05-31T10:24:05;6.07;;;2.35;;
28796;SDS011;24974;54.444;18.560;2023-05-31T10:26:44;4.50;;;2.05;;
28796;SDS011;24974;54.444;18.560;2023-05-31T10:29:23;7.00;;;2.15;;
28796;SDS011;24974;54.444;18.560;2023-05-31T10:32:10;3.63;;;1.70;;
28796;SDS011;24974;54.444;18.560;2023-05-31T10:34:50;8.38;;;2.05;;
28796;SDS011;24974;54.444;18.560;2023-05-31T10:37:23;6.85;;;2.10;;
28796;SDS011;24974;54.444;18.560;2023-05-31T10:53:31;4.70;;;1.90;;
28796;SDS011;24974;54.444;18.560;2023-05-31T10:56:10;4.25;;;1.90;;
28796;SDS011;24974;54.444;18.560;2023-05-31T10:58:49;5.90;;;2.30;;
28796;SDS011;24974;54.444;18.560;2023-05-31T11:01:27;8.07;;;2.20;;
28796;SDS011;24974;54.444;18.560;2023-05-31T11:03:58;9.55;;;2.05;;
28796;SDS011;24974;54.444;18.560;2023-05-31T11:06:31;5.00;;;2.10;;
28796;SDS011;24974;54.444;18.560;2023-05-31T11:19:34;9.25;;;1.90;;
28796;SDS011;24974;54.444;18.560;2023-05-31T11:22:10;6.57;;;1.77;;
28796;SDS011;24974;54.444;18.560;2023-05-31T11:27:44;4.28;;;1.67;;
28796;SDS011;24974;54.444;18.560;2023-05-31T11:30:18;9.25;;;1.92;;
28796;SDS011;24974;54.444;18.560;2023-05-31T11:32:56;4.80;;;1.90;;
28796;SDS011;24974;54.444;18.560;2023-05-31T11:35:30;7.65;;;1.90;;
28796;SDS011;24974;54.444;18.560;2023-05-31T11:38:02;5.38;;;2.17;;
28796;SDS011;24974;54.444;18.560;2023-05-31T11:40:34;8.88;;;1.85;;
28796;SDS011;24974;54.444;18.560;2023-05-31T11:43:07;11.25;;;1.60;;
28796;SDS011;24974;54.444;18.560;2023-05-31T11:45:40;4.13;;;1.70;;
28796;SDS011;24974;54.444;18.560;2023-05-31T11:51:05;7.65;;;2.03;;
28796;SDS011;24974;54.444;18.560;2023-05-31T11:53:36;3.42;;;1.45;;
28796;SDS011;24974;54.444;18.560;2023-05-31T11:56:07;5.15;;;1.45;;
28796;SDS011;24974;54.444;18.560;2023-05-31T11:58:46;3.28;;;1.67;;
28796;SDS011;24974;54.444;18.560;2023-05-31T12:01:17;6.35;;;1.50;;
28796;SDS011;24974;54.444;18.560;2023-05-31T12:03:47;2.17;;;1.48;;
28796;SDS011;24974;54.444;18.560;2023-05-31T12:06:18;2.97;;;1.30;;
28796;SDS011;24974;54.444;18.560;2023-05-31T12:08:51;3.13;;;1.80;;
28796;SDS011;24974;54.444;18.560;2023-05-31T12:11:22;3.72;;;1.75;;
28796;SDS011;24974;54.444;18.560;2023-05-31T12:13:53;7.30;;;1.73;;
28796;SDS011;24974;54.444;18.560;2023-05-31T12:16:27;6.10;;;1.40;;
28796;SDS011;24974;54.444;18.560;2023-05-31T12:18:58;4.88;;;1.73;;
28796;SDS011;24974;54.444;18.560;2023-05-31T12:21:29;2.28;;;1.15;;
28796;SDS011;24974;54.444;18.560;2023-05-31T12:24:01;3.22;;;1.70;;
28796;SDS011;24974;54.444;18.560;2023-05-31T12:26:42;5.70;;;1.75;;
28796;SDS011;24974;54.444;18.560;2023-05-31T12:29:14;3.47;;;1.67;;
28796;SDS011;24974;54.444;18.560;2023-05-31T12:31:46;4.93;;;1.45;;
28796;SDS011;24974;54.444;18.560;2023-05-31T12:34:17;4.45;;;1.77;;
28796;SDS011;24974;54.444;18.560;2023-05-31T12:36:48;4.53;;;1.73;;
28796;SDS011;24974;54.444;18.560;2023-05-31T12:39:20;5.18;;;2.28;;
28796;SDS011;24974;54.444;18.560;2023-05-31T12:41:52;2.42;;;1.40;;
28796;SDS011;24974;54.444;18.560;2023-05-31T12:44:24;2.55;;;1.30;;
28796;SDS011;24974;54.444;18.560;2023-05-31T12:47:03;4.47;;;1.50;;
28796;SDS011;24974;54.444;18.560;2023-05-31T12:49:36;5.63;;;1.52;;
28796;SDS011;24974;54.444;18.560;2023-05-31T12:52:08;7.13;;;2.20;;
28796;SDS011;24974;54.444;18.560;2023-05-31T12:54:40;4.65;;;1.30;;
28796;SDS011;24974;54.444;18.560;2023-05-31T12:57:14;4.00;;;1.27;;
28796;SDS011;24974;54.444;18.560;2023-05-31T12:59:45;6.47;;;1.58;;
28796;SDS011;24974;54.444;18.560;2023-05-31T13:02:16;10.07;;;1.58;;
28796;SDS011;24974;54.444;18.560;2023-05-31T13:04:47;10.13;;;1.70;;
28796;SDS011;24974;54.444;18.560;2023-05-31T13:07:18;5.30;;;1.50;;
28796;SDS011;24974;54.444;18.560;2023-05-31T13:09:49;6.57;;;1.80;;
28796;SDS011;24974;54.444;18.560;2023-05-31T13:12:20;4.93;;;1.50;;
28796;SDS011;24974;54.444;18.560;2023-05-31T13:14:51;7.65;;;1.50;;
28796;SDS011;24974;54.444;18.560;2023-05-31T13:17:23;5.97;;;1.25;;
28796;SDS011;24974;54.444;18.560;2023-05-31T13:19:54;4.75;;;1.58;;
28796;SDS011;24974;54.444;18.560;2023-05-31T13:22:24;4.57;;;1.60;;
28796;SDS011;24974;54.444;18.560;2023-05-31T13:24:55;7.85;;;1.63;;
28796;SDS011;24974;54.444;18.560;2023-05-31T13:27:26;3.83;;;1.23;;
28796;SDS011;24974;54.444;18.560;2023-05-31T13:29:57;2.10;;;1.10;;
28796;SDS011;24974;54.444;18.560;2023-05-31T13:32:28;5.78;;;1.35;;
28796;SDS011;24974;54.444;18.560;2023-05-31T13:34:59;7.97;;;1.45;;
28796;SDS011;24974;54.444;18.560;2023-05-31T13:37:30;7.53;;;1.40;;
28796;SDS011;24974;54.444;18.560;2023-05-31T13:40:01;3.15;;;1.25;;
28796;SDS011;24974;54.444;18.560;2023-05-31T13:42:33;4.65;;;1.30;;
28796;SDS011;24974;54.444;18.560;2023-05-31T13:45:04;6.57;;;1.58;;
28796;SDS011;24974;54.444;18.560;2023-05-31T13:47:35;4.90;;;1.30;;
28796;SDS011;24974;54.444;18.560;2023-05-31T13:50:06;4.45;;;1.52;;
28796;SDS011;24974;54.444;18.560;2023-05-31T13:52:37;4.18;;;1.52;;
28796;SDS011;24974;54.444;18.560;2023-05-31T13:55:08;3.60;;;1.60;;
28796;SDS011;24974;54.444;18.560;2023-05-31T13:57:39;2.97;;;1.70;;
28796;SDS011;24974;54.444;18.560;2023-05-31T14:00:10;6.70;;;2.05;;
28796;SDS011;24974;54.444;18.560;2023-05-31T14:02:41;3.45;;;1.45;;
28796;SDS011;24974;54.444;18.560;2023-05-31T14:05:12;1.95;;;1.23;;
28796;SDS011;24974;54.444;18.560;2023-05-31T14:07:43;4.63;;;1.40;;
28796;SDS011;24974;54.444;18.560;2023-05-31T14:10:14;6.82;;;1.42;;
28796;SDS011;24974;54.444;18.560;2023-05-31T14:12:46;7.97;;;1.70;;
28796;SDS011;24974;54.444;18.560;2023-05-31T14:15:18;10.27;;;1.70;;
28796;SDS011;24974;54.444;18.560;2023-05-31T14:17:49;3.53;;;1.30;;
28796;SDS011;24974;54.444;18.560;2023-05-31T14:20:20;7.10;;;1.30;;
28796;SDS011;24974;54.444;18.560;2023-05-31T14:22:50;6.07;;;1.52;;
28796;SDS011;24974;54.444;18.560;2023-05-31T14:25:21;2.72;;;1.27;;
28796;SDS011;24974;54.444;18.560;2023-05-31T14:27:52;2.33;;;1.38;;
28796;SDS011;24974;54.444;18.560;2023-05-31T14:30:24;4.75;;;1.50;;
28796;SDS011;24974;54.444;18.560;2023-05-31T14:32:56;6.82;;;1.50;;
28796;SDS011;24974;54.444;18.560;2023-05-31T14:35:27;5.60;;;1.52;;
28796;SDS011;24974;54.444;18.560;2023-05-31T14:37:58;4.68;;;1.40;;
28796;SDS011;24974;54.444;18.560;2023-05-31T14:40:29;5.28;;;1.40;;
28796;SDS011;24974;54.444;18.560;2023-05-31T14:43:00;2.40;;;1.35;;
28796;SDS011;24974;54.444;18.560;2023-05-31T14:45:31;3.25;;;1.40;;
28796;SDS011;24974;54.444;18.560;2023-05-31T14:48:02;4.32;;;1.70;;
28796;SDS011;24974;54.444;18.560;2023-05-31T14:50:33;3.70;;;1.40;;
28796;SDS011;24974;54.444;18.560;2023-05-31T14:53:03;3.83;;;1.30;;
28796;SDS011;24974;54.444;18.560;2023-05-31T14:55:34;4.63;;;1.48;;
28796;SDS011;24974;54.444;18.560;2023-05-31T14:58:05;4.90;;;1.40;;
28796;SDS011;24974;54.444;18.560;2023-05-31T15:00:36;5.00;;;1.75;;
28796;SDS011;24974;54.444;18.560;2023-05-31T15:03:08;4.95;;;1.70;;
28796;SDS011;24974;54.444;18.560;2023-05-31T15:05:38;4.50;;;1.60;;
28796;SDS011;24974;54.444;18.560;2023-05-31T15:08:09;3.13;;;1.55;;
28796;SDS011;24974;54.444;18.560;2023-05-31T15:10:40;5.80;;;1.52;;
28796;SDS011;24974;54.444;18.560;2023-05-31T15:13:11;3.30;;;1.50;;
28796;SDS011;24974;54.444;18.560;2023-05-31T15:15:42;3.95;;;1.40;;
28796;SDS011;24974;54.444;18.560;2023-05-31T15:18:13;3.53;;;1.50;;
28796;SDS011;24974;54.444;18.560;2023-05-31T15:20:43;6.38;;;1.38;;
28796;SDS011;24974;54.444;18.560;2023-05-31T15:23:15;4.85;;;1.70;;
28796;SDS011;24974;54.444;18.560;2023-05-31T15:25:46;5.47;;;1.40;;
28796;SDS011;24974;54.444;18.560;2023-05-31T15:28:16;7.95;;;1.55;;
28796;SDS011;24974;54.444;18.560;2023-05-31T15:30:48;8.13;;;1.63;;
28796;SDS011;24974;54.444;18.560;2023-05-31T15:33:19;2.92;;;1.30;;
28796;SDS011;24974;54.444;18.560;2023-05-31T15:35:50;4.72;;;1.88;;
28796;SDS011;24974;54.444;18.560;2023-05-31T15:38:20;4.97;;;1.40;;
28796;SDS011;24974;54.444;18.560;2023-05-31T15:40:51;5.85;;;1.45;;
28796;SDS011;24974;54.444;18.560;2023-05-31T15:43:25;3.50;;;1.80;;
28796;SDS011;24974;54.444;18.560;2023-05-31T15:45:57;6.13;;;1.60;;
28796;SDS011;24974;54.444;18.560;2023-05-31T15:48:28;4.60;;;1.77;;
28796;SDS011;24974;54.444;18.560;2023-05-31T15:50:59;8.93;;;1.75;;
28796;SDS011;24974;54.444;18.560;2023-05-31T15:53:29;7.47;;;1.92;;
28796;SDS011;24974;54.444;18.560;2023-05-31T15:56:00;3.85;;;1.85;;
28796;SDS011;24974;54.444;18.560;2023-05-31T15:58:33;3.42;;;1.63;;
28796;SDS011;24974;54.444;18.560;2023-05-31T16:01:04;5.35;;;1.58;;
28796;SDS011;24974;54.444;18.560;2023-05-31T16:03:35;5.15;;;1.70;;
28796;SDS011;24974;54.444;18.560;2023-05-31T16:06:05;4.22;;;1.30;;
28796;SDS011;24974;54.444;18.560;2023-05-31T16:08:36;2.70;;;1.40;;
28796;SDS011;24974;54.444;18.560;2023-05-31T16:11:07;6.00;;;2.00;;
28796;SDS011;24974;54.444;18.560;2023-05-31T16:13:38;3.47;;;1.42;;
28796;SDS011;24974;54.444;18.560;2023-05-31T16:16:09;9.10;;;2.53;;
28796;SDS011;24974;54.444;18.560;2023-05-31T16:18:39;4.40;;;1.40;;
28796;SDS011;24974;54.444;18.560;2023-05-31T16:21:10;4.22;;;1.83;;
28796;SDS011;24974;54.444;18.560;2023-05-31T16:23:41;7.57;;;1.80;;
28796;SDS011;24974;54.444;18.560;2023-05-31T16:26:14;5.15;;;2.38;;
28796;SDS011;24974;54.444;18.560;2023-05-31T16:28:44;5.10;;;1.48;;
28796;SDS011;24974;54.444;18.560;2023-05-31T16:31:15;4.22;;;2.05;;
28796;SDS011;24974;54.444;18.560;2023-05-31T16:33:47;4.65;;;1.77;;
28796;SDS011;24974;54.444;18.560;2023-05-31T16:36:18;3.22;;;1.65;;
28796;SDS011;24974;54.444;18.560;2023-05-31T16:38:49;6.68;;;1.67;;
28796;SDS011;24974;54.444;18.560;2023-05-31T16:41:20;8.75;;;1.58;;
28796;SDS011;24974;54.444;18.560;2023-05-31T16:43:51;3.88;;;1.88;;
28796;SDS011;24974;54.444;18.560;2023-05-31T16:46:22;5.10;;;2.03;;
28796;SDS011;24974;54.444;18.560;2023-05-31T16:48:53;6.07;;;2.03;;
28796;SDS011;24974;54.444;18.560;2023-05-31T16:51:24;4.97;;;1.88;;
28796;SDS011;24974;54.444;18.560;2023-05-31T16:53:55;3.17;;;1.88;;
28796;SDS011;24974;54.444;18.560;2023-05-31T16:56:26;4.07;;;1.98;;
28796;SDS011;24974;54.444;18.560;2023-05-31T16:58:57;4.47;;;1.50;;
28796;SDS011;24974;54.444;18.560;2023-05-31T17:01:27;2.45;;;1.70;;
28796;SDS011;24974;54.444;18.560;2023-05-31T17:03:58;2.90;;;1.92;;
28796;SDS011;24974;54.444;18.560;2023-05-31T17:06:29;6.80;;;2.15;;
28796;SDS011;24974;54.444;18.560;2023-05-31T17:09:00;5.78;;;1.98;;
28796;SDS011;24974;54.444;18.560;2023-05-31T17:11:31;6.85;;;1.67;;
28796;SDS011;24974;54.444;18.560;2023-05-31T17:14:04;6.28;;;2.10;;
28796;SDS011;24974;54.444;18.560;2023-05-31T17:16:34;4.20;;;1.70;;
28796;SDS011;24974;54.444;18.560;2023-05-31T17:19:05;6.18;;;2.38;;
28796;SDS011;24974;54.444;18.560;2023-05-31T17:21:36;5.80;;;1.83;;
28796;SDS011;24974;54.444;18.560;2023-05-31T17:24:08;5.53;;;1.70;;
28796;SDS011;24974;54.444;18.560;2023-05-31T17:26:39;4.85;;;1.85;;
28796;SDS011;24974;54.444;18.560;2023-05-31T17:29:13;4.28;;;1.40;;
28796;SDS011;24974;54.444;18.560;2023-05-31T17:31:44;5.90;;;1.60;;
28796;SDS011;24974;54.444;18.560;2023-05-31T17:34:17;7.47;;;2.03;;
28796;SDS011;24974;54.444;18.560;2023-05-31T17:36:48;7.95;;;2.17;;
28796;SDS011;24974;54.444;18.560;2023-05-31T17:39:19;8.70;;;1.90;;
28796;SDS011;24974;54.444;18.560;2023-05-31T17:41:50;7.30;;;2.03;;
28796;SDS011;24974;54.444;18.560;2023-05-31T17:44:20;5.78;;;1.60;;
28796;SDS011;24974;54.444;18.560;2023-05-31T17:46:51;7.05;;;1.80;;
28796;SDS011;24974;54.444;18.560;2023-05-31T17:49:22;6.47;;;1.90;;
28796;SDS011;24974;54.444;18.560;2023-05-31T17:51:53;5.93;;;2.00;;
28796;SDS011;24974;54.444;18.560;2023-05-31T17:54:24;4.15;;;1.73;;
28796;SDS011;24974;54.444;18.560;2023-05-31T17:56:55;4.30;;;2.13;;
28796;SDS011;24974;54.444;18.560;2023-05-31T17:59:26;4.63;;;2.10;;
28796;SDS011;24974;54.444;18.560;2023-05-31T18:01:56;7.20;;;1.90;;
28796;SDS011;24974;54.444;18.560;2023-05-31T18:04:27;4.63;;;2.05;;
28796;SDS011;24974;54.444;18.560;2023-05-31T18:06:58;3.97;;;1.98;;
28796;SDS011;24974;54.444;18.560;2023-05-31T18:09:29;5.47;;;1.85;;
28796;SDS011;24974;54.444;18.560;2023-05-31T18:12:00;5.13;;;2.45;;
28796;SDS011;24974;54.444;18.560;2023-05-31T18:14:32;2.88;;;1.63;;
28796;SDS011;24974;54.444;18.560;2023-05-31T18:17:03;4.30;;;2.00;;
28796;SDS011;24974;54.444;18.560;2023-05-31T18:19:34;8.10;;;2.00;;
28796;SDS011;24974;54.444;18.560;2023-05-31T18:22:05;5.25;;;1.90;;
28796;SDS011;24974;54.444;18.560;2023-05-31T18:24:36;7.57;;;2.13;;
28796;SDS011;24974;54.444;18.560;2023-05-31T18:27:13;9.25;;;2.70;;
28796;SDS011;24974;54.444;18.560;2023-05-31T18:29:48;4.05;;;2.10;;
28796;SDS011;24974;54.444;18.560;2023-05-31T18:32:20;5.32;;;1.80;;
28796;SDS011;24974;54.444;18.560;2023-05-31T18:34:50;4.20;;;1.60;;
28796;SDS011;24974;54.444;18.560;2023-05-31T18:37:21;5.97;;;1.95;;
28796;SDS011;24974;54.444;18.560;2023-05-31T18:39:52;6.93;;;1.88;;
28796;SDS011;24974;54.444;18.560;2023-05-31T18:42:23;4.72;;;2.00;;
28796;SDS011;24974;54.444;18.560;2023-05-31T18:44:54;4.38;;;1.60;;
28796;SDS011;24974;54.444;18.560;2023-05-31T18:47:25;6.57;;;2.10;;
28796;SDS011;24974;54.444;18.560;2023-05-31T18:49:56;9.00;;;1.95;;
28796;SDS011;24974;54.444;18.560;2023-05-31T18:52:27;8.38;;;1.90;;
28796;SDS011;24974;54.444;18.560;2023-05-31T18:54:57;2.95;;;1.98;;
28796;SDS011;24974;54.444;18.560;2023-05-31T18:57:28;4.75;;;2.08;;
28796;SDS011;24974;54.444;18.560;2023-05-31T18:59:59;8.00;;;2.00;;
28796;SDS011;24974;54.444;18.560;2023-05-31T19:02:30;8.32;;;2.50;;
28796;SDS011;24974;54.444;18.560;2023-05-31T19:05:01;7.25;;;2.03;;
28796;SDS011;24974;54.444;18.560;2023-05-31T19:07:32;6.60;;;1.67;;
28796;SDS011;24974;54.444;18.560;2023-05-31T19:10:02;4.80;;;1.75;;
28796;SDS011;24974;54.444;18.560;2023-05-31T19:12:33;3.33;;;1.90;;
28796;SDS011;24974;54.444;18.560;2023-05-31T19:15:04;5.18;;;2.10;;
28796;SDS011;24974;54.444;18.560;2023-05-31T19:17:36;7.70;;;1.88;;
28796;SDS011;24974;54.444;18.560;2023-05-31T19:20:07;4.10;;;2.10;;
28796;SDS011;24974;54.444;18.560;2023-05-31T19:22:48;6.60;;;2.22;;
28796;SDS011;24974;54.444;18.560;2023-05-31T19:25:21;5.50;;;1.90;;
28796;SDS011;24974;54.444;18.560;2023-05-31T19:27:51;8.15;;;2.30;;
28796;SDS011;24974;54.444;18.560;2023-05-31T19:30:22;4.85;;;2.38;;
28796;SDS011;24974;54.444;18.560;2023-05-31T19:32:53;5.47;;;2.10;;
28796;SDS011;24974;54.444;18.560;2023-05-31T19:35:24;9.00;;;2.40;;
28796;SDS011;24974;54.444;18.560;2023-05-31T19:37:55;11.48;;;2.25;;
28796;SDS011;24974;54.444;18.560;2023-05-31T19:40:26;6.15;;;2.20;;
28796;SDS011;24974;54.444;18.560;2023-05-31T19:42:56;3.72;;;2.10;;
28796;SDS011;24974;54.444;18.560;2023-05-31T19:45:27;10.63;;;2.00;;
28796;SDS011;24974;54.444;18.560;2023-05-31T19:47:58;4.38;;;1.77;;
28796;SDS011;24974;54.444;18.560;2023-05-31T19:50:36;6.68;;;2.00;;
28796;SDS011;24974;54.444;18.560;2023-05-31T19:53:07;5.10;;;1.90;;
28796;SDS011;24974;54.444;18.560;2023-05-31T19:55:38;6.53;;;2.30;;
28796;SDS011;24974;54.444;18.560;2023-05-31T19:58:11;3.30;;;1.90;;
28796;SDS011;24974;54.444;18.560;2023-05-31T20:00:42;7.32;;;2.22;;
28796;SDS011;24974;54.444;18.560;2023-05-31T20:03:12;5.43;;;2.15;;
28796;SDS011;24974;54.444;18.560;2023-05-31T20:05:44;7.38;;;1.83;;
28796;SDS011;24974;54.444;18.560;2023-05-31T20:08:14;5.70;;;2.33;;
28796;SDS011;24974;54.444;18.560;2023-05-31T20:10:45;8.30;;;2.33;;
28796;SDS011;24974;54.444;18.560;2023-05-31T20:13:16;6.00;;;2.13;;
28796;SDS011;24974;54.444;18.560;2023-05-31T20:15:47;4.57;;;2.20;;
28796;SDS011;24974;54.444;18.560;2023-05-31T20:18:18;4.55;;;1.92;;
28796;SDS011;24974;54.444;18.560;2023-05-31T20:20:51;5.88;;;2.22;;
28796;SDS011;24974;54.444;18.560;2023-05-31T20:23:22;8.18;;;2.50;;
28796;SDS011;24974;54.444;18.560;2023-05-31T20:25:53;3.75;;;2.00;;
28796;SDS011;24974;54.444;18.560;2023-05-31T20:28:23;5.15;;;2.20;;
28796;SDS011;24974;54.444;18.560;2023-05-31T20:30:54;7.20;;;1.98;;
28796;SDS011;24974;54.444;18.560;2023-05-31T20:33:27;10.95;;;2.60;;
28796;SDS011;24974;54.444;18.560;2023-05-31T20:35:58;3.78;;;2.30;;
28796;SDS011;24974;54.444;18.560;2023-05-31T20:38:29;8.52;;;1.88;;
28796;SDS011;24974;54.444;18.560;2023-05-31T20:41:00;6.00;;;2.50;;
28796;SDS011;24974;54.444;18.560;2023-05-31T20:43:31;7.10;;;2.63;;
28796;SDS011;24974;54.444;18.560;2023-05-31T20:46:01;6.45;;;2.85;;
28796;SDS011;24974;54.444;18.560;2023-05-31T20:48:32;6.78;;;2.67;;
28796;SDS011;24974;54.444;18.560;2023-05-31T20:51:03;5.45;;;2.38;;
28796;SDS011;24974;54.444;18.560;2023-05-31T20:53:34;5.97;;;2.60;;
28796;SDS011;24974;54.444;18.560;2023-05-31T20:56:05;6.25;;;2.60;;
28796;SDS011;24974;54.444;18.560;2023-05-31T20:58:36;6.07;;;2.55;;
28796;SDS011;24974;54.444;18.560;2023-05-31T21:01:07;5.30;;;2.40;;
28796;SDS011;24974;54.444;18.560;2023-05-31T21:03:38;5.03;;;2.70;;
28796;SDS011;24974;54.444;18.560;2023-05-31T21:06:08;4.78;;;2.40;;
28796;SDS011;24974;54.444;18.560;2023-05-31T21:08:39;6.22;;;2.22;;
28796;SDS011;24974;54.444;18.560;2023-05-31T21:11:10;4.72;;;2.47;;
28796;SDS011;24974;54.444;18.560;2023-05-31T21:13:41;9.93;;;2.90;;
28796;SDS011;24974;54.444;18.560;2023-05-31T21:16:12;4.63;;;2.13;;
28796;SDS011;24974;54.444;18.560;2023-05-31T21:18:42;4.50;;;2.58;;
28796;SDS011;24974;54.444;18.560;2023-05-31T21:21:14;7.10;;;2.70;;
28796;SDS011;24974;54.444;18.560;2023-05-31T21:23:45;7.00;;;3.20;;
28796;SDS011;24974;54.444;18.560;2023-05-31T21:26:16;6.72;;;2.85;;
28796;SDS011;24974;54.444;18.560;2023-05-31T21:28:46;5.10;;;2.90;;
28796;SDS011;24974;54.444;18.560;2023-05-31T21:31:17;6.10;;;2.88;;
28796;SDS011;24974;54.444;18.560;2023-05-31T21:33:53;11.75;;;3.30;;
28796;SDS011;24974;54.444;18.560;2023-05-31T21:36:24;10.27;;;3.45;;
28796;SDS011;24974;54.444;18.560;2023-05-31T21:38:57;6.28;;;3.25;;
28796;SDS011;24974;54.444;18.560;2023-05-31T21:41:28;5.93;;;3.10;;
28796;SDS011;24974;54.444;18.560;2023-05-31T21:43:59;5.60;;;3.17;;
28796;SDS011;24974;54.444;18.560;2023-05-31T21:46:30;7.80;;;3.33;;
28796;SDS011;24974;54.444;18.560;2023-05-31T21:49:00;8.35;;;3.63;;
28796;SDS011;24974;54.444;18.560;2023-05-31T21:51:31;9.77;;;3.20;;
28796;SDS011;24974;54.444;18.560;2023-05-31T21:54:02;9.57;;;3.83;;
28796;SDS011;24974;54.444;18.560;2023-05-31T21:56:34;9.48;;;3.60;;
28796;SDS011;24974;54.444;18.560;2023-05-31T21:59:05;9.68;;;4.32;;
28796;SDS011;24974;54.444;18.560;2023-05-31T22:01:36;7.90;;;3.47;;
28796;SDS011;24974;54.444;18.560;2023-05-31T22:04:07;11.77;;;4.28;;
28796;SDS011;24974;54.444;18.560;2023-05-31T22:06:38;7.78;;;3.45;;
28796;SDS011;24974;54.444;18.560;2023-05-31T22:09:09;7.85;;;3.45;;
28796;SDS011;24974;54.444;18.560;2023-05-31T22:11:39;8.07;;;4.15;;
28796;SDS011;24974;54.444;18.560;2023-05-31T22:14:10;10.52;;;3.92;;
28796;SDS011;24974;54.444;18.560;2023-05-31T22:16:41;8.38;;;3.72;;
28796;SDS011;24974;54.444;18.560;2023-05-31T22:19:14;7.80;;;4.13;;
28796;SDS011;24974;54.444;18.560;2023-05-31T22:21:55;8.07;;;3.97;;
28796;SDS011;24974;54.444;18.560;2023-05-31T22:24:26;8.02;;;3.83;;
28796;SDS011;24974;54.444;18.560;2023-05-31T22:26:57;9.63;;;4.18;;
28796;SDS011;24974;54.444;18.560;2023-05-31T22:29:28;7.85;;;4.80;;
